createdAt,value
2018-10-09T00:05:20.666Z,7.90
2018-10-09T00:11:25.518Z,7.90
2018-10-09T00:17:30.595Z,7.90
2018-10-09T00:23:34.487Z,7.90
2018-10-09T00:29:38.749Z,7.90
2018-10-09T00:35:43.430Z,7.80
2018-10-09T00:41:47.122Z,7.70
2018-10-09T00:47:50.569Z,7.70
2018-10-09T00:53:54.099Z,7.70
2018-10-09T00:59:58.416Z,7.70
2018-10-09T01:06:01.867Z,7.60
2018-10-09T01:12:06.286Z,7.60
2018-10-09T01:18:10.238Z,7.60
2018-10-09T01:24:13.623Z,7.50
2018-10-09T01:30:17.489Z,7.50
2018-10-09T01:36:20.841Z,7.50
2018-10-09T01:42:24.521Z,7.50
2018-10-09T01:48:27.957Z,7.40
2018-10-09T01:54:31.339Z,7.40
2018-10-09T02:00:35.670Z,7.40
2018-10-09T02:06:39.329Z,7.40
2018-10-09T02:12:42.962Z,7.30
2018-10-09T02:18:46.706Z,7.40
2018-10-09T02:24:50.226Z,7.40
2018-10-09T02:30:53.968Z,7.40
2018-10-09T02:36:57.330Z,7.30
2018-10-09T02:43:00.889Z,7.30
2018-10-09T02:49:04.393Z,7.20
2018-10-09T02:55:07.862Z,7.10
2018-10-09T03:01:11.354Z,6.90
2018-10-09T03:07:15.117Z,6.90
2018-10-09T03:13:18.682Z,6.90
2018-10-09T03:19:22.138Z,6.90
2018-10-09T03:25:25.478Z,6.90
2018-10-09T03:31:29.280Z,6.90
2018-10-09T03:37:32.702Z,6.90
2018-10-09T03:43:36.238Z,6.90
2018-10-09T03:49:39.738Z,6.90
2018-10-09T03:55:43.271Z,6.90
2018-10-09T04:01:46.662Z,6.90
2018-10-09T04:07:50.553Z,7.00
2018-10-09T04:13:54.131Z,7.00
2018-10-09T04:19:57.794Z,7.00
2018-10-09T04:26:01.508Z,7.00
2018-10-09T04:32:05.249Z,7.00
2018-10-09T04:38:08.873Z,7.00
2018-10-09T04:44:12.292Z,6.90
2018-10-09T04:50:16.022Z,6.90
2018-10-09T04:56:20.343Z,6.80
2018-10-09T05:02:23.957Z,6.80
2018-10-09T05:08:27.521Z,6.80
2018-10-09T05:14:31.057Z,6.80
2018-10-09T05:20:35.775Z,6.60
2018-10-09T05:26:40.162Z,6.60
2018-10-09T05:32:43.765Z,6.70
2018-10-09T05:38:47.482Z,6.70
2018-10-09T05:44:51.446Z,6.80
2018-10-09T05:50:56.268Z,6.90
2018-10-09T05:56:59.722Z,7.00
2018-10-09T06:03:03.232Z,7.00
2018-10-09T06:09:08.870Z,7.00
2018-10-09T06:15:12.526Z,6.90
2018-10-09T06:21:16.467Z,6.90
2018-10-09T06:27:20.302Z,6.90
2018-10-09T06:33:23.915Z,7.10
2018-10-09T06:39:28.939Z,7.30
2018-10-09T06:45:32.838Z,7.60
2018-10-09T06:51:36.569Z,7.60
2018-10-09T06:57:40.397Z,7.70
2018-10-09T07:03:43.846Z,7.70
2018-10-09T07:09:47.274Z,7.80
2018-10-09T07:15:50.946Z,8.10
2018-10-09T07:21:55.364Z,8.30
2018-10-09T07:27:59.258Z,8.50
2018-10-09T07:34:03.418Z,8.60
2018-10-09T07:40:09.870Z,8.80
2018-10-09T07:46:14.046Z,8.90
2018-10-09T07:52:17.785Z,9.20
2018-10-09T07:58:22.138Z,9.50
2018-10-09T08:04:27.409Z,9.80
2018-10-09T08:10:31.894Z,10.10
2018-10-09T08:16:37.044Z,10.40
2018-10-09T08:22:41.318Z,10.60
2018-10-09T08:28:45.160Z,10.90
2018-10-09T08:34:49.531Z,11.30
2018-10-09T08:40:53.184Z,11.70
2018-10-09T08:46:57.298Z,12.10
2018-10-09T08:53:01.014Z,12.30
2018-10-09T08:59:05.603Z,12.60
2018-10-09T09:05:09.337Z,12.90
2018-10-09T09:11:13.062Z,13.10
2018-10-09T09:17:16.610Z,13.30
2018-10-09T09:23:20.310Z,13.40
2018-10-09T09:29:23.811Z,13.50
2018-10-09T09:35:27.313Z,13.60
2018-10-09T09:41:30.874Z,13.80
2018-10-09T09:47:35.873Z,14.10
2018-10-09T09:53:39.421Z,14.40
2018-10-09T09:59:44.050Z,14.60
2018-10-09T10:05:47.537Z,14.70
2018-10-09T10:11:50.968Z,14.90
2018-10-09T10:17:55.409Z,14.80
2018-10-09T10:23:59.512Z,14.70
2018-10-09T10:30:03.198Z,14.70
2018-10-09T10:36:06.967Z,14.70
2018-10-09T10:42:11.383Z,14.90
2018-10-09T10:48:15.156Z,15.00
2018-10-09T10:54:18.821Z,15.20
2018-10-09T11:00:22.342Z,15.40
2018-10-09T11:06:26.023Z,15.60
2018-10-09T11:12:29.580Z,15.80
2018-10-09T11:18:33.517Z,16.00
2018-10-09T11:24:37.314Z,16.20
2018-10-09T11:30:41.022Z,16.50
2018-10-09T11:36:45.333Z,16.70
2018-10-09T11:42:50.207Z,17.00
2018-10-09T11:48:53.811Z,17.30
2018-10-09T11:54:57.842Z,17.50
2018-10-09T12:01:05.414Z,17.70
2018-10-09T12:07:09.198Z,17.90
2018-10-09T12:13:12.930Z,18.20
2018-10-09T12:19:16.947Z,18.40
2018-10-09T12:25:20.874Z,18.50
2018-10-09T12:31:24.471Z,18.70
2018-10-09T12:37:27.975Z,18.90
2018-10-09T12:43:33.611Z,19.10
2018-10-09T12:49:38.513Z,19.20
2018-10-09T12:55:42.125Z,19.30
2018-10-09T13:01:46.077Z,19.50
2018-10-09T13:07:49.777Z,19.80
2018-10-09T13:13:54.113Z,20.00
2018-10-09T13:19:57.761Z,19.90
2018-10-09T13:26:01.885Z,20.00
2018-10-09T13:32:05.653Z,20.20
2018-10-09T13:38:09.776Z,20.30
2018-10-09T13:44:14.447Z,20.50
2018-10-09T13:50:18.267Z,20.50
2018-10-09T13:56:21.939Z,20.50
2018-10-09T14:02:25.641Z,20.40
2018-10-09T14:08:29.981Z,20.50
2018-10-09T14:14:34.208Z,20.60
2018-10-09T14:20:37.892Z,20.70
2018-10-09T14:26:41.411Z,20.70
2018-10-09T14:32:45.744Z,20.60
2018-10-09T14:38:49.607Z,20.50
2018-10-09T14:44:53.244Z,20.50
2018-10-09T14:50:57.036Z,20.50
2018-10-09T14:57:04.043Z,20.60
2018-10-09T15:03:14.865Z,20.70
2018-10-09T15:09:19.946Z,20.70
2018-10-09T15:15:24.730Z,20.80
2018-10-09T15:21:28.798Z,20.70
2018-10-09T15:27:32.851Z,20.60
2018-10-09T15:33:37.515Z,20.50
2018-10-09T15:39:42.009Z,20.40
2018-10-09T15:45:46.674Z,20.20
2018-10-09T15:51:51.679Z,20.00
2018-10-09T15:57:55.543Z,19.90
2018-10-09T16:03:59.232Z,19.70
2018-10-09T16:10:05.094Z,19.40
2018-10-09T16:16:11.071Z,19.10
2018-10-09T16:22:16.328Z,18.80
2018-10-09T16:28:24.357Z,18.60
2018-10-09T16:34:29.527Z,18.40
2018-10-09T16:40:35.061Z,18.30
2018-10-09T16:46:41.274Z,18.00
2018-10-09T16:52:46.336Z,17.80
2018-10-09T16:58:51.232Z,17.60
2018-10-09T17:04:56.207Z,17.30
2018-10-09T17:11:02.717Z,17.10
2018-10-09T17:17:08.151Z,17.00
2018-10-09T17:23:14.197Z,16.80
2018-10-09T17:29:19.178Z,16.40
2018-10-09T17:35:24.900Z,16.20
2018-10-09T17:41:31.809Z,16.10
2018-10-09T17:47:36.987Z,16.00
2018-10-09T17:53:41.827Z,15.80
2018-10-09T17:59:45.589Z,15.70
2018-10-09T18:05:51.383Z,15.50
2018-10-09T18:11:56.957Z,15.30
2018-10-09T18:18:03.051Z,15.20
2018-10-09T18:24:08.397Z,15.00
2018-10-09T18:30:13.494Z,14.90
2018-10-09T18:36:17.983Z,14.80
2018-10-09T18:42:22.581Z,14.60
2018-10-09T18:48:27.101Z,14.50
2018-10-09T18:54:31.844Z,14.20
2018-10-09T19:00:36.416Z,14.10
2018-10-09T19:06:40.764Z,14.00
2018-10-09T19:12:45.414Z,13.90
2018-10-09T19:18:51.190Z,13.80
2018-10-09T19:24:55.886Z,13.70
2018-10-09T19:31:00.986Z,13.70
2018-10-09T19:37:05.529Z,13.60
2018-10-09T19:43:10.683Z,13.50
2018-10-09T19:49:15.752Z,13.40
2018-10-09T19:55:20.948Z,13.30
2018-10-09T20:01:26.397Z,13.10
2018-10-09T20:07:32.459Z,13.10
2018-10-09T20:13:37.613Z,13.00
2018-10-09T20:19:42.032Z,12.90
2018-10-09T20:25:45.777Z,12.90
2018-10-09T20:31:49.582Z,12.80
2018-10-09T20:37:53.315Z,12.60
2018-10-09T20:43:57.206Z,12.50
2018-10-09T20:50:02.549Z,12.50
2018-10-09T20:56:06.944Z,12.40
2018-10-09T21:02:13.719Z,12.40
2018-10-09T21:08:18.066Z,12.30
2018-10-09T21:14:22.699Z,12.30
2018-10-09T21:20:27.032Z,12.30
2018-10-09T21:26:33.123Z,12.20
2018-10-09T21:32:38.323Z,12.20
2018-10-09T21:38:42.575Z,12.10
2018-10-09T21:44:47.591Z,12.00
2018-10-09T21:50:51.204Z,12.00
2018-10-09T21:56:55.381Z,11.90
2018-10-09T22:02:59.211Z,11.80
2018-10-09T22:09:04.169Z,11.70
2018-10-09T22:15:08.139Z,11.70
2018-10-09T22:21:12.142Z,11.60
2018-10-09T22:27:15.545Z,11.60
2018-10-09T22:33:19.054Z,11.50
2018-10-09T22:39:22.787Z,11.40
2018-10-09T22:45:26.500Z,11.40
2018-10-09T22:51:30.456Z,11.30
2018-10-09T22:57:34.057Z,11.30
2018-10-09T23:03:37.625Z,11.20
2018-10-09T23:09:41.655Z,11.10
2018-10-09T23:15:45.212Z,11.10
2018-10-09T23:21:49.027Z,11.10
2018-10-09T23:27:52.639Z,11.00
2018-10-09T23:33:56.338Z,10.90
2018-10-09T23:39:59.925Z,10.90
2018-10-09T23:46:03.618Z,10.90
2018-10-09T23:52:07.130Z,10.90
2018-10-09T23:58:10.524Z,10.80
